This is the latest recevied weather packets stored in our database for station/object TG5ALY-16. If no packets are shown the sender has not sent any weather packets the latest 10 day(s).
| Time | Temp. | Humidity | Pressure | Rain* | Wind** | Luminosity | Snow |
|---|---|---|---|---|---|---|---|
| 1777760206 | 20.56° C | 69% | 1012 hPa | 0 mm | - | - | - |
| 1777759606 | 20.56° C | 68% | 1012 hPa | 0 mm | - | - | - |
| 1777759005 | 21.11° C | 66% | 1011 hPa | 0 mm | - | - | - |
| 1777758404 | 21.11° C | 69% | 1011 hPa | 0 mm | - | - | - |
| 1777757804 | 22.22° C | 60% | 1011 hPa | 0 mm | - | - | - |
| 1777757203 | 22.22° C | 59% | 1012 hPa | 0 mm | - | - | - |
| 1777756602 | 23.89° C | 45% | 1012 hPa | 0 mm | - | - | - |
| 1777756002 | 23.89° C | 44% | 1012 hPa | 0 mm | - | - | - |
| 1777755401 | 23.89° C | 41% | 1011 hPa | 0 mm | - | - | - |
| 1777754801 | 23.89° C | 41% | 1011 hPa | 0 mm | - | - | - |
| 1777754200 | 24.44° C | 40% | 1011 hPa | 0 mm | - | - | - |
| 1777753599 | 24.44° C | 41% | 1012 hPa | 0 mm | - | - | - |
| 1777752998 | 23.33° C | 42% | 1012 hPa | 0 mm | - | - | - |
| 1777752398 | 23.33° C | 41% | 1012 hPa | 0 mm | - | - | - |
| 1777751797 | 23.89° C | 38% | 1012 hPa | 0 mm | - | - | - |
| 1777751196 | 23.89° C | 38% | 1012 hPa | 0 mm | - | - | - |
| 1777750595 | 24.44° C | 36% | 1012 hPa | 0 mm | - | - | - |
| 1777749995 | 24.44° C | 36% | 1013 hPa | 0 mm | - | - | - |
| 1777749394 | 24.44° C | 35% | 1013 hPa | 0 mm | - | - | - |
| 1777748793 | 24.44° C | 35% | 1013 hPa | 0 mm | - | - | - |
| 1777748193 | 25° C | 35% | 1013 hPa | 0 mm | - | - | - |
| 1777747592 | 25° C | 35% | 1013 hPa | 0 mm | - | - | - |
| 1777746991 | 24.44° C | 35% | 1013 hPa | 0 mm | - | - | - |
| 1777746391 | 24.44° C | 34% | 1014 hPa | 0 mm | - | - | - |
| 1777745790 | 24.44° C | 33% | 1014 hPa | 0 mm | - | - | - |
* Rain latest hour (hover to see other rain measurements)
** Current wind speed in m/s (hover to see current wind gust speed)